sensor_id;sensor_type;location;lat;lon;timestamp;temperature;humidity
26964;DHT22;14521;48.148;-1.656;2023-05-19T00:02:17;20.80;79.30
26964;DHT22;14521;48.148;-1.656;2023-05-19T00:05:42;20.80;79.30
26964;DHT22;14521;48.148;-1.656;2023-05-19T00:09:08;20.80;79.30
26964;DHT22;14521;48.148;-1.656;2023-05-19T00:12:30;20.80;79.30
26964;DHT22;14521;48.148;-1.656;2023-05-19T00:15:53;20.70;79.30
26964;DHT22;14521;48.148;-1.656;2023-05-19T00:19:16;20.80;79.40
26964;DHT22;14521;48.148;-1.656;2023-05-19T00:22:38;20.70;79.30
26964;DHT22;14521;48.148;-1.656;2023-05-19T00:26:01;20.70;79.30
26964;DHT22;14521;48.148;-1.656;2023-05-19T00:29:23;20.80;79.30
26964;DHT22;14521;48.148;-1.656;2023-05-19T00:32:46;20.80;79.30
26964;DHT22;14521;48.148;-1.656;2023-05-19T00:36:09;20.80;79.30
26964;DHT22;14521;48.148;-1.656;2023-05-19T00:39:31;20.80;79.30
26964;DHT22;14521;48.148;-1.656;2023-05-19T00:42:53;20.70;79.30
26964;DHT22;14521;48.148;-1.656;2023-05-19T00:46:16;20.80;79.30
26964;DHT22;14521;48.148;-1.656;2023-05-19T00:49:39;20.70;79.30
26964;DHT22;14521;48.148;-1.656;2023-05-19T00:53:01;20.70;79.30
26964;DHT22;14521;48.148;-1.656;2023-05-19T00:56:24;20.70;79.30
26964;DHT22;14521;48.148;-1.656;2023-05-19T00:59:47;20.70;79.30
26964;DHT22;14521;48.148;-1.656;2023-05-19T01:03:10;20.70;79.30
26964;DHT22;14521;48.148;-1.656;2023-05-19T01:06:34;20.70;79.20
26964;DHT22;14521;48.148;-1.656;2023-05-19T01:09:58;20.70;79.30
26964;DHT22;14521;48.148;-1.656;2023-05-19T01:13:21;20.70;79.20
26964;DHT22;14521;48.148;-1.656;2023-05-19T01:16:57;20.70;79.20
26964;DHT22;14521;48.148;-1.656;2023-05-19T01:20:39;20.70;79.30
26964;DHT22;14521;48.148;-1.656;2023-05-19T01:31:45;20.60;79.10
26964;DHT22;14521;48.148;-1.656;2023-05-19T01:35:11;20.60;79.10
26964;DHT22;14521;48.148;-1.656;2023-05-19T01:38:39;20.60;79.10
26964;DHT22;14521;48.148;-1.656;2023-05-19T01:42:04;20.60;79.20
26964;DHT22;14521;48.148;-1.656;2023-05-19T01:45:28;20.60;79.20
26964;DHT22;14521;48.148;-1.656;2023-05-19T01:48:51;20.60;79.20
26964;DHT22;14521;48.148;-1.656;2023-05-19T01:52:14;20.70;79.20
26964;DHT22;14521;48.148;-1.656;2023-05-19T01:55:44;20.60;79.20
26964;DHT22;14521;48.148;-1.656;2023-05-19T01:59:18;20.60;79.20
26964;DHT22;14521;48.148;-1.656;2023-05-19T02:06:36;20.60;79.10
26964;DHT22;14521;48.148;-1.656;2023-05-19T02:10:10;20.60;79.10
26964;DHT22;14521;48.148;-1.656;2023-05-19T02:13:36;20.60;79.20
26964;DHT22;14521;48.148;-1.656;2023-05-19T02:17:02;20.60;79.10
26964;DHT22;14521;48.148;-1.656;2023-05-19T02:20:25;20.60;79.20
26964;DHT22;14521;48.148;-1.656;2023-05-19T02:23:49;20.60;79.20
26964;DHT22;14521;48.148;-1.656;2023-05-19T02:27:14;20.60;79.10
26964;DHT22;14521;48.148;-1.656;2023-05-19T02:30:37;20.60;79.10
26964;DHT22;14521;48.148;-1.656;2023-05-19T02:33:59;20.60;79.10
26964;DHT22;14521;48.148;-1.656;2023-05-19T02:37:21;20.50;79.00
26964;DHT22;14521;48.148;-1.656;2023-05-19T02:40:50;20.50;79.00
26964;DHT22;14521;48.148;-1.656;2023-05-19T02:44:13;20.50;79.10
26964;DHT22;14521;48.148;-1.656;2023-05-19T02:47:36;20.50;79.10
26964;DHT22;14521;48.148;-1.656;2023-05-19T02:51:00;20.50;79.00
26964;DHT22;14521;48.148;-1.656;2023-05-19T02:54:22;20.50;79.00
26964;DHT22;14521;48.148;-1.656;2023-05-19T02:57:45;20.50;79.00
26964;DHT22;14521;48.148;-1.656;2023-05-19T03:01:08;20.50;79.10
26964;DHT22;14521;48.148;-1.656;2023-05-19T03:04:30;20.50;79.10
26964;DHT22;14521;48.148;-1.656;2023-05-19T03:07:52;20.50;79.10
26964;DHT22;14521;48.148;-1.656;2023-05-19T03:11:15;20.50;79.10
26964;DHT22;14521;48.148;-1.656;2023-05-19T03:14:37;20.50;79.10
26964;DHT22;14521;48.148;-1.656;2023-05-19T03:18:00;20.40;79.10
26964;DHT22;14521;48.148;-1.656;2023-05-19T03:21:22;20.50;79.10
26964;DHT22;14521;48.148;-1.656;2023-05-19T03:24:45;20.50;79.10
26964;DHT22;14521;48.148;-1.656;2023-05-19T03:28:07;20.40;78.90
26964;DHT22;14521;48.148;-1.656;2023-05-19T03:31:30;20.50;79.10
26964;DHT22;14521;48.148;-1.656;2023-05-19T03:34:53;20.40;79.00
26964;DHT22;14521;48.148;-1.656;2023-05-19T03:38:16;20.50;79.00
26964;DHT22;14521;48.148;-1.656;2023-05-19T03:41:45;20.50;79.00
26964;DHT22;14521;48.148;-1.656;2023-05-19T03:45:08;20.50;79.10
26964;DHT22;14521;48.148;-1.656;2023-05-19T03:48:31;20.40;79.00
26964;DHT22;14521;48.148;-1.656;2023-05-19T03:52:16;20.50;79.00
26964;DHT22;14521;48.148;-1.656;2023-05-19T03:55:46;20.40;78.90
26964;DHT22;14521;48.148;-1.656;2023-05-19T03:59:10;20.50;79.00
26964;DHT22;14521;48.148;-1.656;2023-05-19T04:02:33;20.40;78.90
26964;DHT22;14521;48.148;-1.656;2023-05-19T04:05:55;20.40;78.90
26964;DHT22;14521;48.148;-1.656;2023-05-19T04:09:18;20.40;78.90
26964;DHT22;14521;48.148;-1.656;2023-05-19T04:12:40;20.40;78.90
26964;DHT22;14521;48.148;-1.656;2023-05-19T04:16:03;20.40;78.90
26964;DHT22;14521;48.148;-1.656;2023-05-19T04:19:26;20.40;78.90
26964;DHT22;14521;48.148;-1.656;2023-05-19T04:22:49;20.40;78.90
26964;DHT22;14521;48.148;-1.656;2023-05-19T04:26:12;20.40;78.90
26964;DHT22;14521;48.148;-1.656;2023-05-19T04:29:35;20.40;78.90
26964;DHT22;14521;48.148;-1.656;2023-05-19T04:32:59;20.40;78.90
26964;DHT22;14521;48.148;-1.656;2023-05-19T04:36:22;20.40;78.90
26964;DHT22;14521;48.148;-1.656;2023-05-19T04:39:47;20.40;78.90
26964;DHT22;14521;48.148;-1.656;2023-05-19T04:43:10;20.40;78.90
26964;DHT22;14521;48.148;-1.656;2023-05-19T04:46:33;20.40;78.80
26964;DHT22;14521;48.148;-1.656;2023-05-19T04:49:56;20.30;78.70
26964;DHT22;14521;48.148;-1.656;2023-05-19T04:53:18;20.40;78.80
26964;DHT22;14521;48.148;-1.656;2023-05-19T04:56:43;20.30;78.80
26964;DHT22;14521;48.148;-1.656;2023-05-19T05:00:06;20.30;78.70
26964;DHT22;14521;48.148;-1.656;2023-05-19T05:03:47;20.30;78.70
26964;DHT22;14521;48.148;-1.656;2023-05-19T05:07:10;20.30;78.70
26964;DHT22;14521;48.148;-1.656;2023-05-19T05:10:33;20.30;78.70
26964;DHT22;14521;48.148;-1.656;2023-05-19T05:13:56;20.30;78.70
26964;DHT22;14521;48.148;-1.656;2023-05-19T05:17:23;20.30;78.70
26964;DHT22;14521;48.148;-1.656;2023-05-19T05:20:47;20.30;79.10
26964;DHT22;14521;48.148;-1.656;2023-05-19T05:24:10;20.40;78.90
26964;DHT22;14521;48.148;-1.656;2023-05-19T05:27:34;20.50;78.80
26964;DHT22;14521;48.148;-1.656;2023-05-19T05:30:58;20.50;79.30
26964;DHT22;14521;48.148;-1.656;2023-05-19T05:34:21;20.60;80.30
26964;DHT22;14521;48.148;-1.656;2023-05-19T05:37:45;20.60;79.80
26964;DHT22;14521;48.148;-1.656;2023-05-19T05:41:07;20.60;80.50
26964;DHT22;14521;48.148;-1.656;2023-05-19T05:44:31;20.80;80.30
26964;DHT22;14521;48.148;-1.656;2023-05-19T05:47:56;20.80;80.60
26964;DHT22;14521;48.148;-1.656;2023-05-19T05:51:22;20.80;80.40
26964;DHT22;14521;48.148;-1.656;2023-05-19T05:54:45;20.90;80.20
26964;DHT22;14521;48.148;-1.656;2023-05-19T05:58:09;20.90;81.00
26964;DHT22;14521;48.148;-1.656;2023-05-19T06:01:33;21.00;81.20
26964;DHT22;14521;48.148;-1.656;2023-05-19T06:05:03;21.00;81.10
26964;DHT22;14521;48.148;-1.656;2023-05-19T06:08:27;21.00;80.60
26964;DHT22;14521;48.148;-1.656;2023-05-19T06:11:49;21.10;80.40
26964;DHT22;14521;48.148;-1.656;2023-05-19T06:15:12;21.10;80.40
26964;DHT22;14521;48.148;-1.656;2023-05-19T06:19:04;20.20;76.10
26964;DHT22;14521;48.148;-1.656;2023-05-19T06:22:26;20.10;80.50
26964;DHT22;14521;48.148;-1.656;2023-05-19T06:25:50;20.30;77.70
26964;DHT22;14521;48.148;-1.656;2023-05-19T06:29:12;20.40;77.10
26964;DHT22;14521;48.148;-1.656;2023-05-19T06:32:35;20.40;76.90
26964;DHT22;14521;48.148;-1.656;2023-05-19T06:35:58;20.10;76.50
26964;DHT22;14521;48.148;-1.656;2023-05-19T06:39:20;20.00;77.20
26964;DHT22;14521;48.148;-1.656;2023-05-19T06:42:43;19.90;77.40
26964;DHT22;14521;48.148;-1.656;2023-05-19T06:46:10;19.90;77.30
26964;DHT22;14521;48.148;-1.656;2023-05-19T06:49:34;20.00;77.40
26964;DHT22;14521;48.148;-1.656;2023-05-19T06:52:56;20.00;77.20
26964;DHT22;14521;48.148;-1.656;2023-05-19T06:56:20;20.00;77.20
26964;DHT22;14521;48.148;-1.656;2023-05-19T06:59:44;20.00;77.30
26964;DHT22;14521;48.148;-1.656;2023-05-19T07:03:09;20.00;77.20
26964;DHT22;14521;48.148;-1.656;2023-05-19T07:06:32;20.00;77.20
26964;DHT22;14521;48.148;-1.656;2023-05-19T07:09:55;20.10;76.90
26964;DHT22;14521;48.148;-1.656;2023-05-19T07:13:19;20.10;77.00
26964;DHT22;14521;48.148;-1.656;2023-05-19T07:16:42;20.20;76.90
26964;DHT22;14521;48.148;-1.656;2023-05-19T07:20:05;20.20;76.60
26964;DHT22;14521;48.148;-1.656;2023-05-19T07:23:28;20.20;76.60
26964;DHT22;14521;48.148;-1.656;2023-05-19T07:26:50;20.30;77.40
26964;DHT22;14521;48.148;-1.656;2023-05-19T07:30:12;20.30;77.20
26964;DHT22;14521;48.148;-1.656;2023-05-19T07:33:35;20.30;77.40
26964;DHT22;14521;48.148;-1.656;2023-05-19T07:36:57;20.40;77.10
26964;DHT22;14521;48.148;-1.656;2023-05-19T07:40:19;20.40;76.80
26964;DHT22;14521;48.148;-1.656;2023-05-19T07:43:42;20.40;76.50
26964;DHT22;14521;48.148;-1.656;2023-05-19T07:47:04;20.50;77.00
26964;DHT22;14521;48.148;-1.656;2023-05-19T07:50:27;20.50;76.50
26964;DHT22;14521;48.148;-1.656;2023-05-19T07:53:49;20.50;76.50
26964;DHT22;14521;48.148;-1.656;2023-05-19T07:57:12;20.60;76.10
26964;DHT22;14521;48.148;-1.656;2023-05-19T08:00:35;20.60;76.10
26964;DHT22;14521;48.148;-1.656;2023-05-19T08:03:58;20.60;76.60
26964;DHT22;14521;48.148;-1.656;2023-05-19T08:07:21;20.70;79.30
26964;DHT22;14521;48.148;-1.656;2023-05-19T08:10:46;20.70;77.80
26964;DHT22;14521;48.148;-1.656;2023-05-19T08:14:09;20.80;79.40
26964;DHT22;14521;48.148;-1.656;2023-05-19T08:17:31;20.80;79.90
26964;DHT22;14521;48.148;-1.656;2023-05-19T08:20:54;20.90;81.50
26964;DHT22;14521;48.148;-1.656;2023-05-19T08:24:17;21.00;81.00
26964;DHT22;14521;48.148;-1.656;2023-05-19T08:27:39;21.00;81.50
26964;DHT22;14521;48.148;-1.656;2023-05-19T08:31:02;21.00;81.70
26964;DHT22;14521;48.148;-1.656;2023-05-19T08:34:24;21.10;81.90
26964;DHT22;14521;48.148;-1.656;2023-05-19T08:37:47;21.10;81.50
26964;DHT22;14521;48.148;-1.656;2023-05-19T08:41:09;21.10;81.80
26964;DHT22;14521;48.148;-1.656;2023-05-19T08:44:32;21.10;81.70
26964;DHT22;14521;48.148;-1.656;2023-05-19T08:47:54;21.10;81.60
26964;DHT22;14521;48.148;-1.656;2023-05-19T08:55:07;21.10;81.50
26964;DHT22;14521;48.148;-1.656;2023-05-19T08:58:31;21.20;81.40
26964;DHT22;14521;48.148;-1.656;2023-05-19T09:01:54;21.20;81.00
26964;DHT22;14521;48.148;-1.656;2023-05-19T09:05:18;21.20;80.70
26964;DHT22;14521;48.148;-1.656;2023-05-19T09:08:41;21.20;80.80
26964;DHT22;14521;48.148;-1.656;2023-05-19T09:12:04;21.20;80.80
26964;DHT22;14521;48.148;-1.656;2023-05-19T09:15:26;21.20;81.20
26964;DHT22;14521;48.148;-1.656;2023-05-19T09:18:54;21.20;80.40
26964;DHT22;14521;48.148;-1.656;2023-05-19T09:22:19;21.30;80.80
26964;DHT22;14521;48.148;-1.656;2023-05-19T09:25:52;21.20;80.60
26964;DHT22;14521;48.148;-1.656;2023-05-19T09:29:15;21.20;80.40
26964;DHT22;14521;48.148;-1.656;2023-05-19T09:32:38;21.30;80.30
26964;DHT22;14521;48.148;-1.656;2023-05-19T09:36:00;21.20;79.80
26964;DHT22;14521;48.148;-1.656;2023-05-19T09:39:24;21.30;80.10
26964;DHT22;14521;48.148;-1.656;2023-05-19T09:42:47;21.30;79.90
26964;DHT22;14521;48.148;-1.656;2023-05-19T09:46:10;21.30;80.00
26964;DHT22;14521;48.148;-1.656;2023-05-19T09:49:35;21.30;80.00
26964;DHT22;14521;48.148;-1.656;2023-05-19T09:52:58;21.30;79.80
26964;DHT22;14521;48.148;-1.656;2023-05-19T09:56:23;21.30;79.80
26964;DHT22;14521;48.148;-1.656;2023-05-19T09:59:46;21.30;80.10
26964;DHT22;14521;48.148;-1.656;2023-05-19T10:03:09;21.30;80.00
26964;DHT22;14521;48.148;-1.656;2023-05-19T10:06:31;21.30;80.80
26964;DHT22;14521;48.148;-1.656;2023-05-19T10:09:55;21.40;80.90
26964;DHT22;14521;48.148;-1.656;2023-05-19T10:13:20;21.40;80.60
26964;DHT22;14521;48.148;-1.656;2023-05-19T10:16:43;21.40;80.50
26964;DHT22;14521;48.148;-1.656;2023-05-19T10:23:33;21.40;80.40
26964;DHT22;14521;48.148;-1.656;2023-05-19T10:27:01;21.40;80.30
26964;DHT22;14521;48.148;-1.656;2023-05-19T10:34:13;21.40;79.90
26964;DHT22;14521;48.148;-1.656;2023-05-19T10:37:50;21.40;80.00
26964;DHT22;14521;48.148;-1.656;2023-05-19T10:41:38;21.40;79.80
26964;DHT22;14521;48.148;-1.656;2023-05-19T10:45:12;21.40;79.70
26964;DHT22;14521;48.148;-1.656;2023-05-19T10:48:37;21.40;79.60
26964;DHT22;14521;48.148;-1.656;2023-05-19T10:51:59;21.40;79.50
26964;DHT22;14521;48.148;-1.656;2023-05-19T10:55:53;21.40;79.40
26964;DHT22;14521;48.148;-1.656;2023-05-19T10:59:30;21.40;79.20
26964;DHT22;14521;48.148;-1.656;2023-05-19T11:03:14;21.40;79.00
26964;DHT22;14521;48.148;-1.656;2023-05-19T11:06:36;21.40;78.80
26964;DHT22;14521;48.148;-1.656;2023-05-19T11:10:05;21.40;78.70
26964;DHT22;14521;48.148;-1.656;2023-05-19T11:13:30;21.40;78.50
26964;DHT22;14521;48.148;-1.656;2023-05-19T11:16:57;21.40;78.30
26964;DHT22;14521;48.148;-1.656;2023-05-19T11:20:24;21.40;78.10
26964;DHT22;14521;48.148;-1.656;2023-05-19T11:23:47;21.40;77.60
26964;DHT22;14521;48.148;-1.656;2023-05-19T11:27:28;21.30;76.90
26964;DHT22;14521;48.148;-1.656;2023-05-19T11:30:55;21.40;77.20
26964;DHT22;14521;48.148;-1.656;2023-05-19T11:34:22;21.30;77.30
26964;DHT22;14521;48.148;-1.656;2023-05-19T11:37:48;21.30;76.70
26964;DHT22;14521;48.148;-1.656;2023-05-19T11:41:15;21.30;76.70
26964;DHT22;14521;48.148;-1.656;2023-05-19T11:44:39;21.30;76.50
26964;DHT22;14521;48.148;-1.656;2023-05-19T11:48:13;21.30;76.10
26964;DHT22;14521;48.148;-1.656;2023-05-19T11:51:37;21.30;76.00
26964;DHT22;14521;48.148;-1.656;2023-05-19T11:55:00;21.30;76.00
26964;DHT22;14521;48.148;-1.656;2023-05-19T11:58:25;21.30;75.90
26964;DHT22;14521;48.148;-1.656;2023-05-19T12:01:48;21.30;75.90
26964;DHT22;14521;48.148;-1.656;2023-05-19T12:05:18;21.30;75.90
26964;DHT22;14521;48.148;-1.656;2023-05-19T12:08:40;21.30;76.10
26964;DHT22;14521;48.148;-1.656;2023-05-19T12:12:03;21.30;75.70
26964;DHT22;14521;48.148;-1.656;2023-05-19T12:15:26;21.30;75.70
26964;DHT22;14521;48.148;-1.656;2023-05-19T12:18:48;21.30;76.50
26964;DHT22;14521;48.148;-1.656;2023-05-19T12:22:11;21.40;76.90
26964;DHT22;14521;48.148;-1.656;2023-05-19T12:25:34;21.40;76.70
26964;DHT22;14521;48.148;-1.656;2023-05-19T12:28:57;21.30;76.50
26964;DHT22;14521;48.148;-1.656;2023-05-19T12:32:24;21.40;76.70
26964;DHT22;14521;48.148;-1.656;2023-05-19T12:35:47;21.30;76.70
26964;DHT22;14521;48.148;-1.656;2023-05-19T12:39:11;21.40;77.00
26964;DHT22;14521;48.148;-1.656;2023-05-19T12:42:34;21.40;77.20
26964;DHT22;14521;48.148;-1.656;2023-05-19T12:45:56;21.40;77.20
26964;DHT22;14521;48.148;-1.656;2023-05-19T12:49:19;21.40;77.40
26964;DHT22;14521;48.148;-1.656;2023-05-19T12:52:45;21.40;77.50
26964;DHT22;14521;48.148;-1.656;2023-05-19T12:56:13;21.50;77.80
26964;DHT22;14521;48.148;-1.656;2023-05-19T12:59:35;21.40;78.00
26964;DHT22;14521;48.148;-1.656;2023-05-19T13:03:02;21.50;78.20
26964;DHT22;14521;48.148;-1.656;2023-05-19T13:06:26;21.50;78.30
26964;DHT22;14521;48.148;-1.656;2023-05-19T13:09:48;21.50;78.50
26964;DHT22;14521;48.148;-1.656;2023-05-19T13:13:11;21.50;78.70
26964;DHT22;14521;48.148;-1.656;2023-05-19T13:16:34;21.50;78.80
26964;DHT22;14521;48.148;-1.656;2023-05-19T13:19:56;21.50;78.80
26964;DHT22;14521;48.148;-1.656;2023-05-19T13:23:20;21.50;79.00
26964;DHT22;14521;48.148;-1.656;2023-05-19T13:26:42;21.50;79.10
26964;DHT22;14521;48.148;-1.656;2023-05-19T13:30:05;21.40;79.10
26964;DHT22;14521;48.148;-1.656;2023-05-19T13:33:28;21.50;79.40
26964;DHT22;14521;48.148;-1.656;2023-05-19T13:36:50;21.50;79.00
26964;DHT22;14521;48.148;-1.656;2023-05-19T13:40:12;21.50;80.10
26964;DHT22;14521;48.148;-1.656;2023-05-19T13:43:35;21.50;79.00
26964;DHT22;14521;48.148;-1.656;2023-05-19T13:46:57;21.50;78.80
26964;DHT22;14521;48.148;-1.656;2023-05-19T13:50:20;21.50;79.00
26964;DHT22;14521;48.148;-1.656;2023-05-19T13:53:42;21.50;79.10
26964;DHT22;14521;48.148;-1.656;2023-05-19T13:57:05;21.50;79.10
26964;DHT22;14521;48.148;-1.656;2023-05-19T14:00:27;21.50;79.10
26964;DHT22;14521;48.148;-1.656;2023-05-19T14:03:50;21.50;79.20
26964;DHT22;14521;48.148;-1.656;2023-05-19T14:07:12;21.50;79.30
26964;DHT22;14521;48.148;-1.656;2023-05-19T14:10:35;21.50;79.30
26964;DHT22;14521;48.148;-1.656;2023-05-19T14:13:57;21.50;79.30
26964;DHT22;14521;48.148;-1.656;2023-05-19T14:17:19;21.50;79.30
26964;DHT22;14521;48.148;-1.656;2023-05-19T14:20:42;21.50;79.30
26964;DHT22;14521;48.148;-1.656;2023-05-19T14:24:04;21.50;79.40
26964;DHT22;14521;48.148;-1.656;2023-05-19T14:27:27;21.50;79.40
26964;DHT22;14521;48.148;-1.656;2023-05-19T14:30:49;21.40;79.50
26964;DHT22;14521;48.148;-1.656;2023-05-19T14:34:12;21.50;79.50
26964;DHT22;14521;48.148;-1.656;2023-05-19T14:37:38;21.50;79.40
26964;DHT22;14521;48.148;-1.656;2023-05-19T14:41:01;21.50;79.60
26964;DHT22;14521;48.148;-1.656;2023-05-19T14:44:25;21.50;79.60
26964;DHT22;14521;48.148;-1.656;2023-05-19T14:47:50;21.50;79.70
26964;DHT22;14521;48.148;-1.656;2023-05-19T14:51:13;21.50;79.70
26964;DHT22;14521;48.148;-1.656;2023-05-19T14:54:36;21.50;79.90
26964;DHT22;14521;48.148;-1.656;2023-05-19T14:57:58;21.50;79.80
26964;DHT22;14521;48.148;-1.656;2023-05-19T15:01:20;21.50;79.90
26964;DHT22;14521;48.148;-1.656;2023-05-19T15:04:43;21.40;80.00
26964;DHT22;14521;48.148;-1.656;2023-05-19T15:08:05;21.50;80.30
26964;DHT22;14521;48.148;-1.656;2023-05-19T15:11:28;21.50;80.00
26964;DHT22;14521;48.148;-1.656;2023-05-19T15:14:51;21.50;80.10
26964;DHT22;14521;48.148;-1.656;2023-05-19T15:18:13;21.50;80.20
26964;DHT22;14521;48.148;-1.656;2023-05-19T15:21:39;21.50;80.30
26964;DHT22;14521;48.148;-1.656;2023-05-19T15:25:03;21.50;80.30
26964;DHT22;14521;48.148;-1.656;2023-05-19T15:28:25;21.60;80.30
26964;DHT22;14521;48.148;-1.656;2023-05-19T15:31:51;21.50;80.40
26964;DHT22;14521;48.148;-1.656;2023-05-19T15:35:13;21.60;80.50
26964;DHT22;14521;48.148;-1.656;2023-05-19T15:38:36;21.50;80.50
26964;DHT22;14521;48.148;-1.656;2023-05-19T15:41:58;21.50;80.50
26964;DHT22;14521;48.148;-1.656;2023-05-19T15:45:20;21.50;80.50
26964;DHT22;14521;48.148;-1.656;2023-05-19T15:48:43;21.60;80.70
26964;DHT22;14521;48.148;-1.656;2023-05-19T15:52:05;21.60;80.70
26964;DHT22;14521;48.148;-1.656;2023-05-19T15:55:27;21.60;80.90
26964;DHT22;14521;48.148;-1.656;2023-05-19T15:58:50;21.50;80.70
26964;DHT22;14521;48.148;-1.656;2023-05-19T16:02:13;21.60;80.60
26964;DHT22;14521;48.148;-1.656;2023-05-19T16:05:36;21.50;80.80
26964;DHT22;14521;48.148;-1.656;2023-05-19T16:08:58;21.60;80.70
26964;DHT22;14521;48.148;-1.656;2023-05-19T16:12:20;21.50;80.80
26964;DHT22;14521;48.148;-1.656;2023-05-19T16:15:43;21.50;80.60
26964;DHT22;14521;48.148;-1.656;2023-05-19T16:19:05;21.60;80.70
26964;DHT22;14521;48.148;-1.656;2023-05-19T16:22:27;21.60;80.60
26964;DHT22;14521;48.148;-1.656;2023-05-19T16:25:52;21.60;80.20
26964;DHT22;14521;48.148;-1.656;2023-05-19T16:29:15;21.60;81.10
26964;DHT22;14521;48.148;-1.656;2023-05-19T16:32:38;21.60;81.00
26964;DHT22;14521;48.148;-1.656;2023-05-19T16:36:00;21.60;81.00
26964;DHT22;14521;48.148;-1.656;2023-05-19T16:39:23;21.60;81.00
26964;DHT22;14521;48.148;-1.656;2023-05-19T16:42:45;21.60;80.70
26964;DHT22;14521;48.148;-1.656;2023-05-19T16:46:07;21.50;81.20
26964;DHT22;14521;48.148;-1.656;2023-05-19T16:49:31;21.50;80.50
26964;DHT22;14521;48.148;-1.656;2023-05-19T16:52:54;21.50;79.80
26964;DHT22;14521;48.148;-1.656;2023-05-19T16:56:16;21.40;76.00
26964;DHT22;14521;48.148;-1.656;2023-05-19T16:59:39;21.40;78.40
26964;DHT22;14521;48.148;-1.656;2023-05-19T17:03:02;21.40;80.50
26964;DHT22;14521;48.148;-1.656;2023-05-19T17:06:25;21.40;79.30
26964;DHT22;14521;48.148;-1.656;2023-05-19T17:09:47;21.40;78.60
26964;DHT22;14521;48.148;-1.656;2023-05-19T17:13:10;21.40;78.10
26964;DHT22;14521;48.148;-1.656;2023-05-19T17:16:36;21.40;79.30
26964;DHT22;14521;48.148;-1.656;2023-05-19T17:19:58;21.40;78.30
26964;DHT22;14521;48.148;-1.656;2023-05-19T17:23:21;21.50;78.30
26964;DHT22;14521;48.148;-1.656;2023-05-19T17:26:43;21.50;79.50
26964;DHT22;14521;48.148;-1.656;2023-05-19T17:30:06;21.60;79.70
26964;DHT22;14521;48.148;-1.656;2023-05-19T17:33:29;21.60;83.10
26964;DHT22;14521;48.148;-1.656;2023-05-19T17:36:52;21.60;84.10
26964;DHT22;14521;48.148;-1.656;2023-05-19T17:40:14;21.70;84.70
26964;DHT22;14521;48.148;-1.656;2023-05-19T17:43:38;21.70;84.70
26964;DHT22;14521;48.148;-1.656;2023-05-19T17:47:00;21.70;84.60
26964;DHT22;14521;48.148;-1.656;2023-05-19T17:50:23;21.70;83.10
26964;DHT22;14521;48.148;-1.656;2023-05-19T17:53:46;21.70;83.80
26964;DHT22;14521;48.148;-1.656;2023-05-19T17:57:10;21.60;82.80
26964;DHT22;14521;48.148;-1.656;2023-05-19T18:00:36;21.60;82.80
26964;DHT22;14521;48.148;-1.656;2023-05-19T18:03:58;21.70;82.30
26964;DHT22;14521;48.148;-1.656;2023-05-19T18:07:23;21.70;82.00
26964;DHT22;14521;48.148;-1.656;2023-05-19T18:10:47;21.60;81.40
26964;DHT22;14521;48.148;-1.656;2023-05-19T18:14:12;21.70;81.00
26964;DHT22;14521;48.148;-1.656;2023-05-19T18:17:34;21.60;80.80
26964;DHT22;14521;48.148;-1.656;2023-05-19T18:20:56;21.50;78.70
26964;DHT22;14521;48.148;-1.656;2023-05-19T18:24:19;21.50;80.30
26964;DHT22;14521;48.148;-1.656;2023-05-19T18:27:41;21.50;81.30
26964;DHT22;14521;48.148;-1.656;2023-05-19T18:31:05;21.60;80.70
26964;DHT22;14521;48.148;-1.656;2023-05-19T18:34:28;21.60;80.20
26964;DHT22;14521;48.148;-1.656;2023-05-19T18:37:54;21.60;80.30
26964;DHT22;14521;48.148;-1.656;2023-05-19T18:41:17;21.60;80.30
26964;DHT22;14521;48.148;-1.656;2023-05-19T18:44:39;21.60;80.50
26964;DHT22;14521;48.148;-1.656;2023-05-19T18:48:03;21.60;80.90
26964;DHT22;14521;48.148;-1.656;2023-05-19T18:51:25;21.50;80.50
26964;DHT22;14521;48.148;-1.656;2023-05-19T18:54:48;21.50;79.20
26964;DHT22;14521;48.148;-1.656;2023-05-19T18:58:11;21.50;79.60
26964;DHT22;14521;48.148;-1.656;2023-05-19T19:01:33;21.40;78.10
26964;DHT22;14521;48.148;-1.656;2023-05-19T19:04:56;21.50;78.50
26964;DHT22;14521;48.148;-1.656;2023-05-19T19:08:18;21.50;78.00
26964;DHT22;14521;48.148;-1.656;2023-05-19T19:11:41;21.50;79.60
26964;DHT22;14521;48.148;-1.656;2023-05-19T19:15:03;21.50;77.60
26964;DHT22;14521;48.148;-1.656;2023-05-19T19:18:26;21.50;79.10
26964;DHT22;14521;48.148;-1.656;2023-05-19T19:21:48;21.40;79.30
26964;DHT22;14521;48.148;-1.656;2023-05-19T19:25:10;21.40;78.50
26964;DHT22;14521;48.148;-1.656;2023-05-19T19:28:33;21.40;79.10
26964;DHT22;14521;48.148;-1.656;2023-05-19T19:31:55;21.40;78.10
26964;DHT22;14521;48.148;-1.656;2023-05-19T19:35:18;21.40;78.50
26964;DHT22;14521;48.148;-1.656;2023-05-19T19:38:40;21.40;78.50
26964;DHT22;14521;48.148;-1.656;2023-05-19T19:42:03;21.40;71.70
26964;DHT22;14521;48.148;-1.656;2023-05-19T19:45:25;21.30;72.40
26964;DHT22;14521;48.148;-1.656;2023-05-19T19:48:47;21.20;73.70
26964;DHT22;14521;48.148;-1.656;2023-05-19T19:52:10;21.20;74.70
26964;DHT22;14521;48.148;-1.656;2023-05-19T19:55:32;21.20;75.30
26964;DHT22;14521;48.148;-1.656;2023-05-19T19:58:54;21.20;75.60
26964;DHT22;14521;48.148;-1.656;2023-05-19T20:02:20;21.20;75.80
26964;DHT22;14521;48.148;-1.656;2023-05-19T20:05:42;21.20;76.00
26964;DHT22;14521;48.148;-1.656;2023-05-19T20:09:05;21.20;76.20
26964;DHT22;14521;48.148;-1.656;2023-05-19T20:12:28;21.20;76.20
26964;DHT22;14521;48.148;-1.656;2023-05-19T20:15:51;21.20;76.30
26964;DHT22;14521;48.148;-1.656;2023-05-19T20:19:13;21.30;76.90
26964;DHT22;14521;48.148;-1.656;2023-05-19T20:22:36;21.40;77.80
26964;DHT22;14521;48.148;-1.656;2023-05-19T20:25:59;21.40;78.20
26964;DHT22;14521;48.148;-1.656;2023-05-19T20:29:34;21.40;77.50
26964;DHT22;14521;48.148;-1.656;2023-05-19T20:32:56;21.40;77.50
26964;DHT22;14521;48.148;-1.656;2023-05-19T20:36:19;21.40;77.50
26964;DHT22;14521;48.148;-1.656;2023-05-19T20:39:41;21.40;77.60
26964;DHT22;14521;48.148;-1.656;2023-05-19T20:43:03;21.40;77.70
26964;DHT22;14521;48.148;-1.656;2023-05-19T20:46:26;21.40;77.80
26964;DHT22;14521;48.148;-1.656;2023-05-19T20:49:48;21.40;78.50
26964;DHT22;14521;48.148;-1.656;2023-05-19T20:53:11;21.40;77.80
26964;DHT22;14521;48.148;-1.656;2023-05-19T20:56:33;21.40;77.80
26964;DHT22;14521;48.148;-1.656;2023-05-19T20:59:55;21.30;77.80
26964;DHT22;14521;48.148;-1.656;2023-05-19T21:03:18;21.40;77.80
26964;DHT22;14521;48.148;-1.656;2023-05-19T21:06:42;21.30;77.80
26964;DHT22;14521;48.148;-1.656;2023-05-19T21:10:05;21.30;77.70
26964;DHT22;14521;48.148;-1.656;2023-05-19T21:13:27;21.30;77.80
26964;DHT22;14521;48.148;-1.656;2023-05-19T21:16:51;21.40;77.80
26964;DHT22;14521;48.148;-1.656;2023-05-19T21:20:15;21.30;77.80
26964;DHT22;14521;48.148;-1.656;2023-05-19T21:23:37;21.30;77.70
26964;DHT22;14521;48.148;-1.656;2023-05-19T21:26:59;21.30;77.80
26964;DHT22;14521;48.148;-1.656;2023-05-19T21:30:22;21.30;77.80